Ryegate, MT

11:10 PM MDT on September 18, 2014 (GMT -0600)
Billings Logan International | Change Station
CLOSE
Current Station
Airport
Location: Billings,
Elevation: 3570 ft
Nearby Weather Stations

Elev 3570 ft 45.81 °N, 108.54 °W | Updated 17 minutes ago

Partly Cloudy
Partly Cloudy
64 °F
Feels Like 64 °F
N
10
Wind Variable Wind from SW

Today
High -- | Low -- °F
--% Chance of Precip.
Yesterday
High -- | Low -- °F
Precip. -- in
6:59 AM 7:22 PM
Waning Crescent, 22% visible
Pressure 29.72 in
Visibility 10.0 miles
Clouds Scattered Clouds 7000 ft
Mostly Cloudy 14000 ft
Overcast 22000 ft
Dew Point 54 °F
Humidity 70%
Rainfall 0.17 in
Snow Depth 0 in , 0 in , 0 in
UV 0 out of 12
Pollen 6.10 out of 12
Air Quality Not available.
Flu Activity Not available.
METAR KBIL 190453Z 23009KT 10SM SCT070 BKN140 OVC220 18/12 A2980 RMK AO2 SLP064 OCNL LTG DSNT SW NW CB DSNT SW NW T01780122

More Conditions Fewer Conditions

Pressure 29.72 in
Visibility 10.0 miles
Clouds Scattered Clouds 7000 ft
Mostly Cloudy 14000 ft
Overcast 22000 ft
Dew Point 54 °F
Humidity 70%
Rainfall 0.17 in
Snow Depth 0 in , 0 in , 0 in
UV 0 out of 12
Pollen 6.10 out of 12
Air Quality Not available.
Flu Activity Not available.
METAR KBIL 190453Z 23009KT 10SM SCT070 BKN140 OVC220 18/12 A2980 RMK AO2 SLP064 OCNL LTG DSNT SW NW CB DSNT SW NW T01780122

More Conditions Fewer Conditions

10-Day Weather Forecast

Almanac

Astronomy

Sep. 18, 2014 Rise Set
Actual Time 6:59 AM MDT 7:22 PM MDT
Civil Twilight 6:28 AM MDT 7:52 PM MDT
Nautical Twilight 5:53 AM MDT 8:28 PM MDT
Astronomical Twilight 5:16 AM MDT 9:04 PM MDT
Moon 1:40 AM MDT (9/18) 4:27 PM MDT (9/18)
Length of Visible Light 13h 23m
Length of Day
12h 23m
Tomorrow will be 3m 15s shorter.
Waning Crescent, 22% of the Moon is Illuminated
Sep 19
Waning Crescent
Sep 24
New
Oct 1
First Quarter
Oct 8
Full
Oct 15
Last Quarter

Yesterday's Extremes

State Highs State Lows

Community

WunderPhotos

Upload Photos

1,754,570 photos uploaded!

Nearby

Snow Depth

Station Depth Elevation
Divide 0 in 7800 ft
Carrot Basin 0 in 9000 ft
Fisher Creek 0 in 9100 ft
Kraft Creek 0 in 4750 ft
Deadman Creek 0 in 6450 ft

Earthquake Activity

City Distance Mag. Time & Date
No recent earthquake activity has been reported nearby.
Minimum magnitude displayed is 2.5.

Coastal Water Temperatures

Place Temperature
No Stations Reporting

Nearby Weather Stations